Time;durP1;ratioP1;P1;durP2;ratioP2;P2;SDS_P1;SDS_P2;PMS_P1;PMS_P2;Temp;Humidity;BMP_temperature;BMP_pressure;BME280_temperature;BME280_humidity;BME280_pressure;Samples;Min_cycle;Max_cycle;Signal;HPM_P1;HPM_P2
2021/09/30 00:00:26;;;;;;;2.75;0.70;;;;;;;11.19;100.00;97752.25;5079941;28;20047;-62
2021/09/30 00:03:12;;;;;;;0.95;0.65;;;;;;;11.13;100.00;97759.91;5079007;28;20048;-60
2021/09/30 00:05:58;;;;;;;2.63;1.05;;;;;;;11.08;100.00;97762.91;5087501;28;20040;-61
2021/09/30 00:08:44;;;;;;;1.90;0.80;;;;;;;11.06;99.84;97762.44;5096159;28;20704;-62
2021/09/30 00:11:35;;;;;;;3.53;0.68;;;;;;;11.21;99.26;97769.16;5064602;28;20085;-62
2021/09/30 00:14:36;;;;;;;2.28;0.80;;;;;;;11.42;97.47;97769.81;5051403;28;20505;-61
2021/09/30 00:42:21;;;;;;;1.27;0.50;;;;;;;11.54;82.65;97771.75;5063763;28;20044;-61
2021/09/30 02:39:59;;;;;;;5.07;0.90;;;;;;;10.73;86.03;97798.94;5014696;28;20458;-63
2021/09/30 02:58:32;;;;;;;2.28;1.33;;;;;;;10.75;85.00;97812.31;5008316;28;20053;-64
2021/09/30 03:01:21;;;;;;;1.92;0.80;;;;;;;10.65;85.13;97802.59;5025265;28;20401;-63
2021/09/30 03:04:07;;;;;;;3.45;1.48;;;;;;;10.66;85.45;97806.94;5021938;28;20049;-64
2021/09/30 03:06:55;;;;;;;0.95;0.73;;;;;;;10.67;84.09;97808.53;5037351;28;20444;-61
2021/09/30 03:09:44;;;;;;;2.20;0.70;;;;;;;10.70;83.98;97807.88;5031040;28;20037;-64
2021/09/30 03:12:32;;;;;;;1.00;0.90;;;;;;;10.66;84.09;97805.00;5034402;28;20048;-64
2021/09/30 03:16:04;;;;;;;0.95;0.60;;;;;;;10.61;84.69;97809.91;5031767;28;20041;-64
2021/09/30 03:24:35;;;;;;;3.10;0.80;;;;;;;10.37;87.95;97814.19;5045860;28;20052;-62
2021/09/30 03:27:21;;;;;;;2.05;0.60;;;;;;;10.42;88.11;97813.97;5061942;28;20040;-59
2021/09/30 03:30:07;;;;;;;2.15;0.70;;;;;;;10.50;87.76;97813.09;5052538;28;20040;-61
2021/09/30 03:32:54;;;;;;;4.03;1.98;;;;;;;10.38;88.06;97818.53;5055140;28;20037;-59
2021/09/30 03:35:40;;;;;;;2.25;0.68;;;;;;;10.36;89.16;97809.84;5057516;28;20139;-61
2021/09/30 03:38:26;;;;;;;2.95;0.90;;;;;;;10.35;89.68;97821.13;5049523;28;20045;-60
2021/09/30 03:41:12;;;;;;;2.35;0.77;;;;;;;10.36;89.92;97820.81;5054296;28;20045;-61
2021/09/30 03:43:57;;;;;;;3.08;0.90;;;;;;;10.37;90.16;97807.91;5058591;28;20049;-59
2021/09/30 03:46:46;;;;;;;0.82;0.60;;;;;;;10.23;89.96;97817.19;5062078;28;20052;-61
2021/09/30 03:49:33;;;;;;;4.65;0.90;;;;;;;10.08;89.16;97810.41;5063500;28;20425;-62
2021/09/30 03:52:27;;;;;;;2.38;0.90;;;;;;;10.03;88.46;97807.06;5059269;28;20032;-61
2021/09/30 04:01:17;;;;;;;1.58;0.60;;;;;;;10.07;89.12;97822.50;5056764;28;20040;-62
2021/09/30 04:04:03;;;;;;;3.22;0.70;;;;;;;10.15;87.44;97812.59;5056005;28;20123;-59
2021/09/30 04:06:49;;;;;;;3.65;0.73;;;;;;;10.21;86.00;97811.25;5069356;28;20044;-61
2021/09/30 04:09:37;;;;;;;3.05;0.60;;;;;;;10.09;83.91;97817.47;5060613;28;20458;-63
2021/09/30 04:12:23;;;;;;;3.80;0.70;;;;;;;9.92;84.72;97812.97;5037314;28;20059;-61
2021/09/30 04:15:09;;;;;;;2.70;0.80;;;;;;;9.88;85.29;97819.44;5054715;28;20148;-63
2021/09/30 04:17:55;;;;;;;3.30;0.80;;;;;;;9.96;86.61;97815.84;5047649;28;20072;-63
2021/09/30 04:20:40;;;;;;;2.60;0.75;;;;;;;9.98;86.97;97821.78;5067676;28;20072;-63
2021/09/30 04:23:26;;;;;;;4.00;1.15;;;;;;;9.92;89.14;97820.34;5042883;28;20052;-61
2021/09/30 04:26:12;;;;;;;2.05;1.08;;;;;;;9.88;91.38;97825.69;5058709;28;20043;-63
2021/09/30 04:28:57;;;;;;;2.20;0.93;;;;;;;9.86;92.12;97822.50;5064527;28;20052;-63
2021/09/30 04:31:44;;;;;;;1.73;0.70;;;;;;;9.80;92.28;97825.78;5068350;28;20040;-62
2021/09/30 04:34:30;;;;;;;2.92;0.70;;;;;;;9.76;92.98;97826.44;5089485;28;20032;-62
2021/09/30 04:37:16;;;;;;;1.65;0.70;;;;;;;9.75;94.16;97829.50;5080957;28;20046;-62
2021/09/30 04:40:03;;;;;;;5.05;1.30;;;;;;;9.71;94.63;97828.59;5056907;28;20051;-63
2021/09/30 04:42:49;;;;;;;3.83;1.20;;;;;;;9.61;96.06;97828.97;5059130;28;20525;-60
2021/09/30 04:45:34;;;;;;;6.22;1.15;;;;;;;9.54;95.62;97824.84;5057760;28;20118;-61
2021/09/30 04:48:20;;;;;;;1.58;1.00;;;;;;;9.50;96.41;97836.75;5051389;28;20446;-64
2021/09/30 04:51:06;;;;;;;2.80;0.90;;;;;;;9.56;96.25;97828.03;5054768;28;20044;-63
2021/09/30 04:53:52;;;;;;;4.10;0.90;;;;;;;9.35;93.42;97828.00;5036263;28;20040;-64
2021/09/30 04:56:38;;;;;;;4.80;0.85;;;;;;;9.33;92.96;97829.47;5057604;28;20476;-64
2021/09/30 04:59:23;;;;;;;5.47;0.90;;;;;;;9.33;92.81;97818.53;5049241;28;20646;-64
2021/09/30 05:02:09;;;;;;;3.83;1.00;;;;;;;9.26;96.47;97823.72;5035435;28;20078;-61
2021/09/30 05:04:55;;;;;;;1.95;0.70;;;;;;;9.18;99.30;97817.16;5057930;28;20654;-63
2021/09/30 05:07:41;;;;;;;3.53;0.88;;;;;;;9.04;100.00;97817.41;5048944;28;20107;-61
2021/09/30 05:10:32;;;;;;;2.92;0.88;;;;;;;8.95;100.00;97822.13;5049757;28;20148;-63
2021/09/30 05:13:22;;;;;;;2.30;1.00;;;;;;;8.80;100.00;97818.81;5053798;28;20137;-61
2021/09/30 05:16:11;;;;;;;1.58;1.08;;;;;;;8.76;100.00;97814.31;5058725;28;20063;-62
2021/09/30 05:18:56;;;;;;;2.43;1.10;;;;;;;8.56;100.00;97804.91;5067760;28;20079;-62
2021/09/30 05:21:42;;;;;;;7.53;1.20;;;;;;;8.49;100.00;97810.88;5053079;28;20048;-62
2021/09/30 05:24:28;;;;;;;2.70;0.95;;;;;;;8.47;100.00;97809.59;5059612;28;20434;-63
2021/09/30 05:27:14;;;;;;;2.17;1.20;;;;;;;8.48;100.00;97819.38;5031348;28;20139;-61
2021/09/30 05:29:59;;;;;;;4.78;1.02;;;;;;;8.46;100.00;97814.22;5068021;28;20109;-62
2021/09/30 05:32:46;;;;;;;3.53;0.98;;;;;;;8.60;100.00;97823.03;5068250;28;20076;-63
2021/09/30 05:35:31;;;;;;;4.53;1.00;;;;;;;8.70;100.00;97821.09;5066167;28;20501;-62
2021/09/30 05:38:17;;;;;;;4.85;1.27;;;;;;;8.75;100.00;97834.56;5063465;28;20078;-64
2021/09/30 05:41:04;;;;;;;2.67;1.25;;;;;;;8.66;100.00;97823.69;5052929;28;20052;-62
2021/09/30 05:43:53;;;;;;;3.45;0.93;;;;;;;8.63;100.00;97823.53;5065431;28;20075;-63
2021/09/30 05:46:52;;;;;;;5.23;1.27;;;;;;;8.58;100.00;97814.38;5063289;28;20036;-61
2021/09/30 05:49:37;;;;;;;4.25;1.17;;;;;;;8.60;100.00;97800.38;5055739;28;20091;-60
2021/09/30 05:52:23;;;;;;;9.65;1.42;;;;;;;8.46;100.00;97805.25;5046493;28;20663;-61
2021/09/30 05:55:10;;;;;;;2.75;1.00;;;;;;;8.50;100.00;97803.47;5048583;28;20043;-62
2021/09/30 05:57:55;;;;;;;5.00;0.90;;;;;;;8.58;100.00;97810.84;5079176;28;20036;-62
2021/09/30 06:01:07;;;;;;;2.17;0.85;;;;;;;8.74;100.00;97817.38;5068869;28;20055;-62
2021/09/30 06:13:21;;;;;;;4.50;1.20;;;;;;;10.17;92.84;97826.75;5006166;28;20049;-63
2021/09/30 06:16:12;;;;;;;2.60;0.80;;;;;;;10.20;90.39;97815.13;5049875;28;20048;-62
2021/09/30 06:18:57;;;;;;;4.72;1.00;;;;;;;10.02;92.89;97816.44;5060436;28;20456;-62
2021/09/30 06:21:43;;;;;;;2.80;0.85;;;;;;;10.50;90.29;97823.25;5063235;28;20142;-62
2021/09/30 06:24:29;;;;;;;2.47;0.80;;;;;;;10.66;88.62;97826.09;5057181;28;20134;-63
2021/09/30 06:27:14;;;;;;;3.70;0.77;;;;;;;10.54;87.92;97828.84;5060165;28;20039;-61
2021/09/30 06:30:00;;;;;;;3.97;0.93;;;;;;;10.68;86.90;97824.66;5068335;28;20505;-61
2021/09/30 06:32:48;;;;;;;3.25;0.80;;;;;;;10.71;86.76;97818.50;5074779;28;20044;-62
2021/09/30 06:35:33;;;;;;;2.80;0.68;;;;;;;11.48;82.89;97817.00;5068361;28;20047;-61
2021/09/30 06:38:19;;;;;;;1.42;0.90;;;;;;;11.19;83.01;97821.59;5044324;28;20040;-60
2021/09/30 06:41:05;;;;;;;3.33;1.17;;;;;;;11.21;83.36;97815.78;5052151;28;20110;-62
2021/09/30 06:43:50;;;;;;;4.43;0.70;;;;;;;11.04;83.54;97823.09;5067309;28;20055;-61
2021/09/30 06:46:36;;;;;;;5.90;0.90;;;;;;;10.80;83.52;97818.38;5058539;28;20045;-60
2021/09/30 06:49:22;;;;;;;9.38;1.38;;;;;;;10.88;84.41;97824.91;5042535;22;20475;-61
2021/09/30 06:52:08;;;;;;;1.85;0.82;;;;;;;11.01;83.34;97818.28;5011892;28;20048;-61
2021/09/30 06:54:53;;;;;;;3.08;0.73;;;;;;;11.02;82.13;97821.81;5007720;28;20053;-60
2021/09/30 06:57:39;;;;;;;2.30;0.70;;;;;;;11.34;80.90;97827.53;5017294;28;20045;-61
2021/09/30 07:00:26;;;;;;;2.67;0.73;;;;;;;12.50;76.96;97835.25;4982900;28;20049;-60
2021/09/30 07:03:13;;;;;;;10.23;1.33;;;;;;;13.10;74.05;97830.50;4985519;28;20067;-61
2021/09/30 07:05:58;;;;;;;3.92;1.15;;;;;;;12.92;72.66;97826.50;4993488;28;20080;-60
2021/09/30 07:08:44;;;;;;;1.42;0.50;;;;;;;11.90;73.49;97837.84;4993950;28;20053;-60
2021/09/30 07:11:30;;;;;;;6.93;0.90;;;;;;;11.97;73.14;97840.84;5000817;28;20140;-61
2021/09/30 07:14:16;;;;;;;4.07;0.88;;;;;;;11.53;73.62;97846.16;5015890;28;20045;-61
2021/09/30 07:17:02;;;;;;;4.22;0.93;;;;;;;11.75;71.67;97847.63;5018522;28;20175;-61
2021/09/30 07:19:47;;;;;;;3.47;0.77;;;;;;;11.71;70.65;97835.72;5012347;28;20034;-61
2021/09/30 07:22:33;;;;;;;3.30;1.10;;;;;;;11.83;71.61;97844.75;4996224;28;20088;-60
2021/09/30 07:25:24;;;;;;;1.38;0.50;;;;;;;12.05;69.11;97842.66;5006326;28;20076;-63
2021/09/30 07:28:10;;;;;;;2.85;0.70;;;;;;;12.22;67.48;97849.78;5016048;28;20038;-61
2021/09/30 07:30:56;;;;;;;6.80;1.63;;;;;;;13.10;67.64;97843.47;5019906;28;20099;-61
2021/09/30 07:33:41;;;;;;;3.45;1.15;;;;;;;14.41;61.33;97844.00;5012815;28;20103;-62
2021/09/30 07:36:27;;;;;;;1.20;0.65;;;;;;;13.31;63.94;97845.97;4994901;28;20771;-61
2021/09/30 07:39:16;;;;;;;2.55;0.50;;;;;;;13.60;62.64;97854.91;4996746;28;20122;-61
2021/09/30 07:42:02;;;;;;;6.50;0.70;;;;;;;12.74;65.47;97851.59;5015116;28;20397;-62
2021/09/30 07:44:47;;;;;;;2.97;0.60;;;;;;;12.33;65.58;97855.59;4976447;28;20042;-60
2021/09/30 07:47:33;;;;;;;2.20;0.70;;;;;;;12.23;64.52;97852.19;4996676;28;20606;-61
2021/09/30 07:50:19;;;;;;;6.80;1.00;;;;;;;12.31;66.82;97850.44;4986261;28;20069;-60
2021/09/30 07:53:05;;;;;;;3.67;0.60;;;;;;;12.54;67.00;97856.16;4988171;28;20044;-61
2021/09/30 07:55:52;;;;;;;2.65;0.52;;;;;;;12.23;65.11;97859.63;4997945;28;20053;-61
2021/09/30 07:58:38;;;;;;;3.58;0.63;;;;;;;12.52;67.50;97852.19;5014035;28;20045;-61
2021/09/30 08:01:23;;;;;;;2.78;0.50;;;;;;;12.24;66.62;97861.22;5012746;28;20041;-62
2021/09/30 08:04:09;;;;;;;1.40;0.40;;;;;;;12.32;68.19;97862.25;5007211;28;20033;-61
2021/09/30 08:06:55;;;;;;;2.85;0.70;;;;;;;12.38;66.75;97860.81;5013715;28;20421;-60
2021/09/30 08:09:41;;;;;;;4.78;0.60;;;;;;;12.95;64.86;97867.06;5004118;28;20052;-60
2021/09/30 08:12:27;;;;;;;1.75;0.52;;;;;;;13.23;63.46;97866.97;4999469;28;20049;-61
2021/09/30 08:15:12;;;;;;;5.40;1.15;;;;;;;14.02;65.08;97868.78;4989102;28;20253;-61
2021/09/30 08:17:58;;;;;;;2.72;0.70;;;;;;;14.62;60.79;97868.47;5003610;28;20459;-61
2021/09/30 08:20:44;;;;;;;2.53;0.57;;;;;;;14.32;59.65;97863.53;5011793;28;20057;-61
2021/09/30 08:23:30;;;;;;;3.60;0.60;;;;;;;16.57;56.07;97861.19;5006069;28;20051;-62
2021/09/30 08:26:19;;;;;;;1.30;0.50;;;;;;;18.80;47.99;97859.94;4992296;28;20384;-62
2021/09/30 08:29:04;;;;;;;2.20;0.70;;;;;;;19.67;46.29;97851.28;4994480;28;20041;-61
2021/09/30 08:31:50;;;;;;;3.88;0.90;;;;;;;17.60;47.36;97855.00;4997423;28;20046;-61
2021/09/30 08:34:36;;;;;;;2.50;0.50;;;;;;;17.30;49.95;97849.63;4995033;28;20038;-60
2021/09/30 08:37:22;;;;;;;2.30;0.55;;;;;;;16.87;51.91;97852.00;5009294;28;20057;-61
2021/09/30 08:40:09;;;;;;;1.27;0.60;;;;;;;16.52;52.26;97848.47;5011781;28;20101;-60
2021/09/30 08:42:55;;;;;;;2.20;0.80;;;;;;;18.25;47.55;97855.41;5013872;28;20548;-62
2021/09/30 08:45:42;;;;;;;4.00;0.65;;;;;;;19.13;44.81;97847.72;5013976;28;20042;-61
2021/09/30 08:48:28;;;;;;;1.70;0.77;;;;;;;18.28;46.50;97849.88;4991031;28;20042;-59
2021/09/30 08:51:16;;;;;;;2.47;0.60;;;;;;;14.92;54.86;97851.28;4991316;28;20419;-62
2021/09/30 08:54:03;;;;;;;0.88;0.50;;;;;;;15.77;54.83;97847.50;5004809;28;20046;-62
2021/09/30 08:56:49;;;;;;;2.85;0.60;;;;;;;15.32;58.03;97852.72;5000046;28;20045;-61
2021/09/30 08:59:36;;;;;;;4.47;0.63;;;;;;;18.65;48.02;97840.47;5012585;28;20155;-59
2021/09/30 09:02:22;;;;;;;2.88;0.70;;;;;;;17.22;50.27;97842.47;5006282;28;20269;-60
2021/09/30 09:05:08;;;;;;;2.17;0.50;;;;;;;16.56;52.92;97837.44;5005974;28;20079;-60
2021/09/30 09:08:00;;;;;;;9.98;1.15;;;;;;;19.20;45.58;97833.06;5014328;28;20053;-62
2021/09/30 09:10:46;;;;;;;3.70;0.60;;;;;;;17.16;48.08;97837.28;5013567;28;20441;-60
2021/09/30 09:13:32;;;;;;;1.38;0.40;;;;;;;18.84;45.50;97830.25;4999070;28;20038;-61
2021/09/30 09:16:24;;;;;;;2.05;0.35;;;;;;;19.09;43.16;97828.28;4999532;28;20064;-60
2021/09/30 09:19:09;;;;;;;2.13;0.68;;;;;;;18.31;45.59;97817.78;5002617;28;20134;-58
2021/09/30 09:21:55;;;;;;;3.72;0.60;;;;;;;18.04;46.91;97826.41;4981994;28;20466;-59
2021/09/30 09:24:59;;;;;;;5.63;0.85;;;;;;;17.55;49.61;97811.03;5006798;28;20055;-61
2021/09/30 09:27:44;;;;;;;2.22;0.35;;;;;;;17.82;48.42;97814.38;4985396;28;20050;-60
2021/09/30 09:30:47;;;;;;;3.67;1.40;;;;;;;18.00;47.67;97820.03;5000645;28;20087;-61
2021/09/30 09:33:38;;;;;;;2.00;0.70;;;;;;;18.59;45.73;97816.28;5008950;28;20564;-60
2021/09/30 09:36:29;;;;;;;2.80;0.52;;;;;;;19.50;43.57;97810.44;5004071;28;20052;-59
2021/09/30 09:39:16;;;;;;;4.57;0.70;;;;;;;20.92;40.55;97818.66;5007695;28;20124;-60
2021/09/30 09:42:14;;;;;;;5.70;0.70;;;;;;;18.51;44.45;97813.50;5013325;28;20145;-56
2021/09/30 09:45:06;;;;;;;5.88;0.75;;;;;;;19.75;42.36;97809.59;5005319;28;20478;-60
2021/09/30 09:47:51;;;;;;;5.80;1.75;;;;;;;20.24;40.49;97807.88;4998493;28;20109;-60
2021/09/30 09:50:37;;;;;;;2.70;0.90;;;;;;;21.54;36.91;97803.03;5011207;28;20042;-61
2021/09/30 09:53:27;;;;;;;3.45;0.63;;;;;;;21.08;38.17;97806.97;5009997;28;20065;-60
2021/09/30 09:56:20;;;;;;;3.35;1.05;;;;;;;22.90;35.28;97795.00;5008856;28;20045;-60
2021/09/30 09:59:05;;;;;;;2.53;0.50;;;;;;;23.74;32.33;97783.22;5008246;28;20057;-59
2021/09/30 10:01:52;;;;;;;3.22;0.60;;;;;;;21.61;36.21;97785.44;5002324;28;20112;-61
2021/09/30 10:04:43;;;;;;;4.47;0.73;;;;;;;22.32;34.93;97789.41;5015030;28;20111;-61
2021/09/30 10:07:29;;;;;;;4.47;0.65;;;;;;;19.98;39.27;97790.47;4989906;28;20049;-61
2021/09/30 10:10:16;;;;;;;2.30;0.47;;;;;;;21.41;37.20;97784.41;4987383;28;20072;-59
2021/09/30 10:13:03;;;;;;;1.15;0.32;;;;;;;20.97;38.75;97781.19;5001141;28;20084;-59
2021/09/30 10:15:53;;;;;;;2.45;0.60;;;;;;;19.90;39.91;97780.56;5012621;28;20069;-61
2021/09/30 10:18:40;;;;;;;3.22;0.77;;;;;;;20.54;38.57;97778.69;5012011;28;20046;-60
2021/09/30 10:21:27;;;;;;;7.03;0.70;;;;;;;21.47;37.37;97771.66;5012900;28;20119;-60
2021/09/30 10:24:17;;;;;;;3.40;0.65;;;;;;;21.69;36.98;97772.22;5009679;28;20049;-61
2021/09/30 10:27:06;;;;;;;4.15;0.60;;;;;;;21.14;38.52;97765.53;5011641;28;20037;-60
2021/09/30 10:29:54;;;;;;;2.60;0.40;;;;;;;21.25;37.51;97766.25;5010679;28;20142;-61
2021/09/30 10:32:50;;;;;;;2.88;0.60;;;;;;;20.94;39.42;97759.72;5011652;28;20099;-61
2021/09/30 10:35:42;;;;;;;2.97;0.85;;;;;;;20.34;41.88;97748.56;5013341;28;20045;-60
2021/09/30 10:38:34;;;;;;;7.70;0.90;;;;;;;20.64;38.92;97747.25;5009261;28;20473;-63
2021/09/30 10:41:35;;;;;;;1.63;0.47;;;;;;;20.59;38.63;97739.28;5004365;28;20098;-60
2021/09/30 10:44:30;;;;;;;3.45;0.50;;;;;;;20.17;40.04;97741.16;4989536;28;20038;-62
2021/09/30 10:47:20;;;;;;;2.03;0.60;;;;;;;19.86;40.11;97735.28;4995463;28;20048;-60
2021/09/30 10:50:07;;;;;;;2.40;0.82;;;;;;;20.47;39.05;97729.41;5002025;28;20041;-60
2021/09/30 10:52:54;;;;;;;3.33;0.90;;;;;;;20.08;39.50;97733.25;5011590;28;20132;-59
2021/09/30 10:55:40;;;;;;;4.18;1.00;;;;;;;19.74;39.20;97733.00;4992667;28;20519;-59
2021/09/30 10:58:26;;;;;;;0.70;0.38;;;;;;;19.75;39.75;97729.78;4996812;28;20049;-61
2021/09/30 11:01:15;;;;;;;2.47;1.02;;;;;;;19.68;40.12;97716.69;5004801;28;20449;-61
2021/09/30 11:04:03;;;;;;;3.40;1.10;;;;;;;19.28;41.87;97717.97;5003915;28;20057;-60
2021/09/30 11:07:07;;;;;;;1.83;0.70;;;;;;;19.19;41.44;97714.81;4995335;28;20073;-60
2021/09/30 11:10:17;;;;;;;2.40;0.50;;;;;;;19.09;41.72;97710.88;5007685;28;20042;-62
2021/09/30 11:13:22;;;;;;;1.23;0.45;;;;;;;19.80;41.90;97704.34;4990923;28;20457;-60
2021/09/30 11:16:10;;;;;;;1.75;0.70;;;;;;;20.34;40.04;97698.50;4981801;28;20062;-61
2021/09/30 11:18:59;;;;;;;1.88;0.50;;;;;;;20.57;38.56;97697.94;5002403;28;20091;-59
2021/09/30 11:21:46;;;;;;;1.33;0.47;;;;;;;20.65;37.15;97695.16;4997551;28;20047;-60
2021/09/30 11:24:39;;;;;;;10.18;0.68;;;;;;;19.34;39.02;97698.91;5006878;28;20034;-61
2021/09/30 11:27:29;;;;;;;3.50;0.75;;;;;;;18.47;42.02;97703.72;4987423;28;20764;-60
2021/09/30 11:30:25;;;;;;;4.75;1.15;;;;;;;18.36;42.83;97691.81;4990055;28;20046;-61
2021/09/30 11:33:10;;;;;;;2.03;0.60;;;;;;;20.32;38.03;97689.00;4995228;28;20056;-61
2021/09/30 11:36:00;;;;;;;0.95;0.43;;;;;;;20.95;37.03;97686.13;4998786;28;20076;-60
2021/09/30 11:38:49;;;;;;;5.57;0.60;;;;;;;20.61;37.60;97682.03;4999106;28;20131;-61
2021/09/30 11:41:37;;;;;;;5.45;0.77;;;;;;;19.28;40.49;97682.69;5004281;28;20430;-60
2021/09/30 11:44:23;;;;;;;1.00;0.38;;;;;;;21.05;37.23;97678.88;5002266;28;20047;-62
2021/09/30 11:47:09;;;;;;;2.08;0.47;;;;;;;22.89;34.36;97662.13;5013509;28;20510;-60
2021/09/30 11:49:55;;;;;;;3.35;0.47;;;;;;;22.83;33.38;97661.03;5004246;28;20042;-60
2021/09/30 11:52:42;;;;;;;1.20;0.80;;;;;;;23.17;33.90;97653.66;4998437;28;20521;-62
2021/09/30 11:55:29;;;;;;;4.65;0.85;;;;;;;24.33;31.48;97655.69;4997838;28;20459;-60
2021/09/30 11:58:16;;;;;;;3.85;0.47;;;;;;;23.77;31.24;97653.66;4994278;28;20434;-61
2021/09/30 12:01:01;;;;;;;3.78;0.60;;;;;;;24.84;30.46;97646.88;5000126;28;20478;-59
2021/09/30 12:03:47;;;;;;;4.88;0.30;;;;;;;25.30;29.47;97642.06;4999982;28;20049;-59
2021/09/30 12:06:40;;;;;;;3.72;0.40;;;;;;;25.63;28.72;97631.53;4986008;28;20565;-60
2021/09/30 12:09:26;;;;;;;2.50;0.40;;;;;;;24.80;30.51;97627.34;4995496;28;20045;-61
2021/09/30 12:12:12;;;;;;;1.52;0.45;;;;;;;24.56;30.92;97635.97;5014167;28;20080;-62
2021/09/30 12:14:58;;;;;;;1.95;0.60;;;;;;;24.53;30.54;97628.41;5019633;28;20037;-60
2021/09/30 12:17:44;;;;;;;3.10;0.85;;;;;;;24.14;31.10;97620.94;5017731;28;20041;-61
2021/09/30 12:20:30;;;;;;;2.28;0.63;;;;;;;23.46;32.74;97615.56;5000873;28;20140;-63
2021/09/30 12:23:16;;;;;;;1.50;0.32;;;;;;;20.95;34.87;97620.09;5000861;28;20426;-60
2021/09/30 12:26:02;;;;;;;2.75;0.60;;;;;;;21.28;35.86;97623.31;5007884;28;20045;-62
2021/09/30 12:28:51;;;;;;;0.47;0.32;;;;;;;20.75;36.54;97619.09;5013930;28;20552;-61
2021/09/30 12:31:37;;;;;;;2.90;0.70;;;;;;;18.00;41.59;97606.59;4990582;28;20054;-61
2021/09/30 12:34:24;;;;;;;3.17;0.70;;;;;;;17.25;43.35;97604.41;4989557;28;20953;-62
2021/09/30 12:37:09;;;;;;;2.17;0.43;;;;;;;16.69;45.71;97600.91;4990078;28;20613;-60
2021/09/30 12:40:18;;;;;;;3.45;0.57;;;;;;;17.80;43.80;97595.06;4989112;28;20034;-61
2021/09/30 12:43:14;;;;;;;2.42;0.60;;;;;;;18.75;40.69;97593.94;5011925;28;20045;-61
2021/09/30 12:46:07;;;;;;;2.70;0.40;;;;;;;19.10;40.79;97588.31;5016374;28;20041;-60
2021/09/30 12:49:03;;;;;;;2.85;0.52;;;;;;;18.97;39.55;97586.38;5015657;28;20402;-61
2021/09/30 12:51:49;;;;;;;2.97;0.80;;;;;;;18.82;40.22;97580.84;5001565;28;20136;-61
2021/09/30 12:54:35;;;;;;;2.60;0.40;;;;;;;18.91;39.62;97575.69;5015652;28;20048;-60
2021/09/30 12:57:20;;;;;;;0.70;0.40;;;;;;;17.82;41.09;97576.06;5011926;28;20112;-60
2021/09/30 13:00:12;;;;;;;5.38;1.20;;;;;;;17.77;42.15;97577.25;5012869;28;20039;-61
2021/09/30 13:03:15;;;;;;;4.28;0.50;;;;;;;18.13;40.32;97570.97;5017285;28;20076;-59
2021/09/30 13:06:00;;;;;;;3.35;0.73;;;;;;;17.86;40.88;97562.25;5016036;28;20041;-59
2021/09/30 13:08:46;;;;;;;2.00;0.68;;;;;;;17.50;42.46;97562.94;5014506;28;20053;-59
2021/09/30 13:11:35;;;;;;;3.30;0.60;;;;;;;17.61;41.54;97564.94;4983573;28;20130;-58
2021/09/30 13:14:44;;;;;;;0.82;0.30;;;;;;;17.34;43.28;97568.84;4976537;28;20083;-58
2021/09/30 13:17:30;;;;;;;1.67;0.50;;;;;;;17.58;42.56;97558.22;4984836;28;20046;-59
2021/09/30 13:20:16;;;;;;;1.63;0.40;;;;;;;17.88;41.85;97557.09;4995962;28;20042;-60
2021/09/30 13:23:02;;;;;;;2.13;0.45;;;;;;;17.64;41.71;97551.09;5004753;28;20097;-61
2021/09/30 13:25:48;;;;;;;3.90;0.70;;;;;;;17.58;42.33;97552.69;4998557;28;20041;-59
2021/09/30 13:28:34;;;;;;;1.55;0.40;;;;;;;17.67;42.93;97549.53;4989006;28;20053;-57
2021/09/30 13:31:19;;;;;;;1.45;0.50;;;;;;;17.63;42.16;97544.00;4991805;28;20490;-58
2021/09/30 13:34:05;;;;;;;1.05;0.40;;;;;;;17.67;42.15;97544.00;4991973;28;20046;-58
2021/09/30 13:36:52;;;;;;;2.95;0.40;;;;;;;17.61;41.78;97543.59;4995588;28;20644;-60
2021/09/30 13:39:38;;;;;;;12.55;0.85;;;;;;;17.64;42.45;97542.00;4978490;28;20646;-60
2021/09/30 13:42:25;;;;;;;3.15;0.70;;;;;;;17.74;41.54;97538.47;4991965;28;20713;-61
2021/09/30 13:45:13;;;;;;;3.50;0.57;;;;;;;17.70;41.54;97526.56;4976525;28;20042;-60
2021/09/30 13:47:59;;;;;;;2.88;0.30;;;;;;;17.72;42.39;97540.84;4997828;28;20069;-57
2021/09/30 13:50:45;;;;;;;4.75;0.30;;;;;;;17.85;41.24;97530.97;4994780;28;20490;-59
2021/09/30 13:53:31;;;;;;;2.08;0.40;;;;;;;17.76;41.80;97538.84;4993558;28;20183;-58
2021/09/30 13:56:17;;;;;;;3.65;0.65;;;;;;;16.81;43.10;97533.38;4986308;28;20149;-59
2021/09/30 13:59:03;;;;;;;3.08;0.75;;;;;;;17.04;43.19;97526.81;4994553;28;20045;-60
2021/09/30 14:01:48;;;;;;;1.45;0.45;;;;;;;17.38;42.21;97524.53;4994586;28;20049;-59
2021/09/30 14:04:35;;;;;;;2.45;0.43;;;;;;;17.36;42.98;97521.38;4996471;28;20046;-60
2021/09/30 14:07:21;;;;;;;4.70;0.93;;;;;;;17.70;40.71;97523.78;4992241;28;20249;-59
2021/09/30 14:10:15;;;;;;;2.85;0.43;;;;;;;16.55;42.69;97532.47;4995699;28;20200;-60
2021/09/30 14:13:01;;;;;;;1.48;0.43;;;;;;;16.76;42.41;97525.44;5016652;28;20152;-58
2021/09/30 14:15:48;;;;;;;1.55;0.50;;;;;;;16.32;44.01;97520.84;5016127;28;20154;-60
2021/09/30 14:18:33;;;;;;;1.65;0.45;;;;;;;16.47;43.44;97517.00;5013108;28;20179;-59
2021/09/30 14:21:19;;;;;;;3.13;1.20;;;;;;;16.53;41.42;97514.66;5009112;28;20401;-59
2021/09/30 14:24:05;;;;;;;1.02;0.40;;;;;;;16.19;42.09;97512.88;5010283;28;20049;-59
2021/09/30 14:26:51;;;;;;;1.35;0.40;;;;;;;16.82;43.41;97515.63;5016287;28;20107;-60
2021/09/30 14:29:41;;;;;;;2.22;0.50;;;;;;;17.06;44.23;97499.53;5015160;28;20478;-62
2021/09/30 14:32:27;;;;;;;4.95;1.15;;;;;;;17.19;42.93;97506.28;5001900;28;20045;-61
2021/09/30 14:35:17;;;;;;;3.58;0.60;;;;;;;17.28;43.34;97503.16;5008652;28;20095;-61
2021/09/30 14:38:04;;;;;;;4.20;0.50;;;;;;;17.45;41.66;97507.94;5010930;28;20041;-63
2021/09/30 14:40:52;;;;;;;0.82;0.30;;;;;;;17.65;40.14;97507.59;5014662;28;20037;-59
2021/09/30 14:43:37;;;;;;;1.63;0.50;;;;;;;17.40;41.10;97502.78;4999544;28;20541;-61
2021/09/30 14:46:23;;;;;;;3.05;0.32;;;;;;;17.50;39.82;97506.75;4990617;28;20516;-61
2021/09/30 14:49:09;;;;;;;1.05;0.40;;;;;;;17.34;40.26;97501.56;4991216;28;20482;-59
2021/09/30 14:51:54;;;;;;;1.30;0.50;;;;;;;17.17;40.35;97505.88;4995750;28;20045;-59
2021/09/30 14:54:40;;;;;;;2.42;0.45;;;;;;;17.47;41.33;97511.13;4994768;28;20137;-61
2021/09/30 14:57:26;;;;;;;3.53;0.52;;;;;;;16.77;39.75;97507.69;4991076;28;20037;-62
2021/09/30 15:00:14;;;;;;;4.00;0.77;;;;;;;16.95;40.00;97505.03;4991048;28;20109;-60
2021/09/30 15:03:02;;;;;;;2.88;0.70;;;;;;;16.98;41.38;97501.50;4995445;28;20141;-57
2021/09/30 15:05:48;;;;;;;2.08;0.60;;;;;;;17.30;43.46;97496.03;4995837;28;20058;-59
2021/09/30 15:08:34;;;;;;;2.00;0.43;;;;;;;17.11;42.20;97494.41;5018912;28;20057;-58
2021/09/30 15:11:19;;;;;;;1.25;0.30;;;;;;;16.94;40.98;97492.34;4993679;28;20034;-58
2021/09/30 15:14:06;;;;;;;3.30;0.40;;;;;;;17.06;42.29;97491.22;4994089;28;20041;-58
2021/09/30 15:19:54;;;;;;;1.52;0.45;;;;;;;17.06;42.15;97485.69;4998622;28;20121;-61
2021/09/30 15:22:41;;;;;;;3.35;0.70;;;;;;;17.00;43.43;97485.28;4998205;28;20037;-58
2021/09/30 15:25:28;;;;;;;3.83;0.70;;;;;;;16.78;43.29;97484.34;4992362;28;20042;-61
2021/09/30 15:28:16;;;;;;;2.67;0.32;;;;;;;16.86;43.78;97482.47;4986737;28;20104;-62
2021/09/30 15:31:02;;;;;;;1.05;0.47;;;;;;;16.84;42.51;97482.06;4998169;28;20080;-61
2021/09/30 15:33:48;;;;;;;1.17;0.43;;;;;;;16.58;43.51;97483.88;4998198;28;20050;-61
2021/09/30 15:36:35;;;;;;;3.10;0.57;;;;;;;16.73;43.09;97482.78;4998478;28;20076;-61
2021/09/30 15:39:21;;;;;;;1.33;0.40;;;;;;;16.78;43.04;97487.94;4994512;28;20042;-60
2021/09/30 15:42:11;;;;;;;2.45;0.57;;;;;;;16.72;41.90;97480.38;4995215;28;20092;-61
2021/09/30 15:44:57;;;;;;;1.65;0.50;;;;;;;16.80;41.93;97466.19;4984578;28;20045;-59
2021/09/30 15:47:42;;;;;;;1.77;0.50;;;;;;;16.70;42.95;97471.69;5000264;28;20073;-61
2021/09/30 15:50:30;;;;;;;2.45;0.40;;;;;;;16.59;43.96;97472.44;4995741;28;20041;-64
2021/09/30 15:53:16;;;;;;;6.25;0.82;;;;;;;16.37;44.83;97484.56;4996509;28;20251;-62
2021/09/30 15:56:02;;;;;;;5.60;2.13;;;;;;;16.31;43.15;97475.03;4997913;28;20128;-60
2021/09/30 15:58:47;;;;;;;2.35;0.68;;;;;;;16.42;43.06;97473.94;4999451;28;20441;-61
2021/09/30 16:01:33;;;;;;;1.40;0.47;;;;;;;16.22;44.04;97469.84;5005381;28;20037;-60
2021/09/30 16:04:19;;;;;;;2.22;0.80;;;;;;;16.38;45.01;97484.16;5004014;28;20056;-62
2021/09/30 16:07:05;;;;;;;0.70;0.45;;;;;;;16.26;45.32;97481.72;5004247;28;20049;-61
2021/09/30 16:09:51;;;;;;;3.20;0.57;;;;;;;16.06;46.29;97472.88;4999585;28;20514;-60